Time;durP1;ratioP1;P1;durP2;ratioP2;P2;SDS_P1;SDS_P2;PMS_P1;PMS_P2;Temp;Humidity;BMP_temperature;BMP_pressure;BME280_temperature;BME280_humidity;BME280_pressure;Samples;Min_cycle;Max_cycle;Signal;HPM_P1;HPM_P2
2023/05/02 00:00:39;;;;;;;4.30;3.67;;;9.50;99.90;;;9.06;100.00;97324.03;5038876;28;20119;-40
2023/05/02 00:03:05;;;;;;;6.53;3.70;;;9.50;99.90;;;9.02;100.00;97322.38;5041057;28;20032;-40
2023/05/02 00:05:31;;;;;;;4.40;3.50;;;9.50;99.90;;;8.94;100.00;97319.16;5044953;28;20040;-38
2023/05/02 00:07:57;;;;;;;4.18;3.53;;;9.40;99.90;;;8.90;100.00;97326.28;5039289;28;20064;-40
2023/05/02 00:10:22;;;;;;;5.38;3.30;;;9.40;99.90;;;8.85;100.00;97319.44;5039228;28;20032;-39
2023/05/02 00:12:48;;;;;;;4.85;3.70;;;9.30;99.90;;;8.78;100.00;97318.78;5036204;28;20524;-39
2023/05/02 00:15:14;;;;;;;4.45;3.42;;;9.20;99.90;;;8.75;100.00;97314.44;5040862;28;20652;-40
2023/05/02 00:17:41;;;;;;;4.68;3.65;;;9.20;99.90;;;8.74;100.00;97320.63;5039056;28;20418;-39
2023/05/02 00:20:09;;;;;;;4.07;3.67;;;9.20;99.90;;;8.68;100.00;97317.31;5045255;28;20047;-40
2023/05/02 00:22:34;;;;;;;6.88;3.58;;;9.20;99.90;;;8.67;100.00;97315.59;5045674;28;20041;-40
2023/05/02 00:25:00;;;;;;;4.65;3.80;;;9.10;99.90;;;8.69;100.00;97311.16;5042667;28;20311;-40
2023/05/02 00:27:26;;;;;;;5.28;3.95;;;9.10;99.90;;;8.69;100.00;97313.81;5042599;28;20435;-39
2023/05/02 00:29:53;;;;;;;5.32;4.30;;;9.10;99.90;;;8.53;100.00;97290.59;5042019;28;20091;-41
2023/05/02 00:32:18;;;;;;;4.68;3.85;;;9.10;99.90;;;8.55;100.00;97294.03;5046164;28;20032;-40
2023/05/02 00:34:44;;;;;;;4.20;3.80;;;9.10;99.90;;;8.66;100.00;97306.84;5052358;28;20378;-38
2023/05/02 00:37:10;;;;;;;4.18;3.78;;;9.10;99.90;;;8.65;100.00;97313.03;5038071;28;20071;-38
2023/05/02 00:39:36;;;;;;;4.25;3.70;;;9.10;99.90;;;8.64;100.00;97310.44;5044630;28;20078;-39
2023/05/02 00:42:02;;;;;;;4.15;3.53;;;9.10;99.90;;;8.63;100.00;97314.81;5042279;28;20384;-38
2023/05/02 00:44:28;;;;;;;5.13;3.83;;;9.10;99.90;;;8.63;100.00;97314.81;5042820;28;20261;-38
2023/05/02 00:46:54;;;;;;;4.07;3.53;;;9.10;99.90;;;8.64;100.00;97315.69;5041519;28;20559;-38
2023/05/02 00:49:20;;;;;;;4.95;4.15;;;9.10;99.90;;;8.61;100.00;97300.88;5045822;28;20028;-38
2023/05/02 00:51:46;;;;;;;4.72;3.97;;;9.10;99.90;;;8.69;100.00;97316.44;5043981;28;20069;-38
2023/05/02 00:54:13;;;;;;;5.90;4.05;;;9.20;99.90;;;8.69;100.00;97319.06;5047853;28;20056;-38
2023/05/02 00:56:38;;;;;;;5.80;4.35;;;9.20;99.90;;;8.66;100.00;97319.13;5045366;28;20036;-38
2023/05/02 00:59:06;;;;;;;5.95;4.28;;;9.20;99.90;;;8.71;100.00;97317.25;5043235;28;20557;-40
2023/05/02 01:02:17;;;;;;;5.40;4.38;;;9.20;99.90;;;8.79;100.00;97315.22;5040601;28;20553;-39
2023/05/02 01:04:48;;;;;;;5.25;4.10;;;9.20;99.90;;;8.77;100.00;97317.03;5020997;28;20044;-40
2023/05/02 01:07:38;;;;;;;5.10;4.35;;;9.30;99.90;;;8.80;100.00;97316.94;5046060;28;20365;-40
2023/05/02 01:10:22;;;;;;;5.25;4.40;;;9.30;99.90;;;8.77;100.00;97320.53;5046364;28;20523;-39
2023/05/02 01:13:13;;;;;;;5.60;4.00;;;9.20;99.90;;;8.71;100.00;97322.50;5040120;28;20039;-41
2023/05/02 01:15:40;;;;;;;5.60;4.50;;;9.20;99.90;;;8.71;100.00;97328.59;5046244;28;20060;-40
2023/05/02 01:18:10;;;;;;;4.97;4.45;;;9.20;99.90;;;8.66;100.00;97327.03;5040553;28;20572;-39
2023/05/02 01:20:40;;;;;;;4.93;4.35;;;9.20;99.90;;;8.64;100.00;97329.69;5041292;28;20044;-39
2023/05/02 01:23:17;;;;;;;6.00;4.63;;;9.10;99.90;;;8.63;100.00;97333.22;5043001;28;20089;-40
2023/05/02 01:26:10;;;;;;;5.15;4.15;;;9.10;99.90;;;8.57;100.00;97328.16;5045581;28;20031;-42
2023/05/02 01:28:57;;;;;;;8.63;5.45;;;9.10;99.90;;;8.60;100.00;97335.97;5034306;28;20025;-39
2023/05/02 01:31:40;;;;;;;5.88;4.93;;;9.00;99.90;;;8.61;100.00;97335.03;5046277;28;20049;-40
2023/05/02 01:34:10;;;;;;;5.93;4.88;;;9.10;99.90;;;8.62;100.00;97342.03;5039441;28;20036;-40
2023/05/02 01:36:42;;;;;;;5.93;4.55;;;9.10;99.90;;;8.53;100.00;97318.66;5035480;28;20060;-39
2023/05/02 01:39:11;;;;;;;4.97;4.30;;;9.10;99.90;;;8.64;100.00;97342.84;5040780;28;20025;-40
2023/05/02 01:41:37;;;;;;;5.80;4.60;;;9.10;99.90;;;8.54;100.00;97320.34;5038808;28;20035;-39
2023/05/02 01:44:05;;;;;;;6.28;4.75;;;9.10;99.90;;;8.48;100.00;97316.16;5043096;28;20777;-40
2023/05/02 01:46:33;;;;;;;5.88;4.60;;;9.10;99.90;;;8.56;100.00;97345.72;5041430;28;20048;-40
2023/05/02 01:49:05;;;;;;;6.55;4.38;;;9.00;99.90;;;8.51;100.00;97336.25;5035667;28;20063;-40
2023/05/02 01:51:34;;;;;;;6.40;4.82;;;9.00;99.90;;;8.45;100.00;97334.63;5040763;28;20087;-41
2023/05/02 01:54:07;;;;;;;5.25;4.53;;;8.90;99.90;;;8.44;100.00;97342.59;5036388;28;20064;-40
2023/05/02 01:56:37;;;;;;;9.20;5.45;;;8.90;99.90;;;8.44;100.00;97335.56;5042143;28;20045;-40
2023/05/02 01:59:10;;;;;;;8.02;4.55;;;8.90;99.90;;;8.45;100.00;97339.88;5061385;28;20033;-40
2023/05/02 02:01:39;;;;;;;5.55;4.53;;;8.90;99.90;;;8.37;100.00;97329.56;5042815;28;20032;-40
2023/05/02 02:04:08;;;;;;;5.13;4.38;;;8.90;99.90;;;8.36;100.00;97332.25;5042544;28;20554;-41
2023/05/02 02:06:34;;;;;;;5.30;4.25;;;8.90;99.90;;;8.38;100.00;97340.94;5042951;28;20063;-40
2023/05/02 02:09:01;;;;;;;5.18;4.18;;;8.80;99.90;;;8.35;100.00;97341.91;5038892;28;20318;-40
2023/05/02 02:11:34;;;;;;;7.53;5.05;;;8.80;99.90;;;8.31;100.00;97342.03;5037536;28;20112;-41
2023/05/02 02:14:06;;;;;;;7.10;5.05;;;8.80;99.90;;;8.17;100.00;97331.94;5040250;28;20036;-40
2023/05/02 02:16:37;;;;;;;6.13;5.07;;;8.70;99.90;;;8.21;100.00;97344.91;5043423;28;20127;-40
2023/05/02 02:19:07;;;;;;;5.45;4.90;;;8.70;99.90;;;8.18;100.00;97358.16;5023722;28;20120;-40
2023/05/02 02:21:35;;;;;;;4.90;4.40;;;8.60;99.90;;;8.15;100.00;97360.00;5041934;28;20111;-41
2023/05/02 02:24:03;;;;;;;5.90;4.93;;;8.60;99.90;;;8.09;100.00;97350.50;5042491;28;20111;-40
2023/05/02 02:26:29;;;;;;;6.03;5.43;;;8.60;99.90;;;8.12;100.00;97363.56;5059098;28;21696;-41
2023/05/02 02:28:55;;;;;;;6.00;4.63;;;8.60;99.90;;;8.13;100.00;97367.03;5047602;28;20523;-40
2023/05/02 02:31:24;;;;;;;6.32;5.10;;;8.60;99.90;;;8.08;100.00;97367.19;5044831;28;20085;-39
2023/05/02 02:33:50;;;;;;;5.90;4.68;;;8.50;99.90;;;8.03;100.00;97366.47;5044593;28;20035;-40
2023/05/02 02:36:46;;;;;;;6.20;5.03;;;8.50;99.90;;;8.06;100.00;97371.63;5045871;28;20819;-40
2023/05/02 02:39:20;;;;;;;6.00;4.65;;;8.50;99.90;;;8.07;100.00;97373.34;5040583;28;20138;-39
2023/05/02 02:42:03;;;;;;;5.78;4.90;;;8.60;99.90;;;8.08;100.00;97377.69;5038311;28;20321;-39
2023/05/02 02:44:43;;;;;;;7.28;5.00;;;8.50;99.90;;;8.13;100.00;97377.56;5047085;28;20222;-40
2023/05/02 02:47:25;;;;;;;6.05;4.60;;;8.60;99.90;;;8.13;100.00;97377.56;5041716;28;20624;-39
2023/05/02 02:50:05;;;;;;;5.47;4.32;;;8.60;99.90;;;8.13;100.00;97386.31;5045448;28;20127;-42
2023/05/02 02:53:16;;;;;;;5.55;4.78;;;8.60;99.90;;;8.11;100.00;97388.13;5050473;28;20044;-39
2023/05/02 02:55:52;;;;;;;6.03;4.30;;;8.60;99.90;;;8.08;100.00;97393.47;5039794;28;20179;-39
2023/05/02 02:58:51;;;;;;;6.75;4.82;;;8.60;99.90;;;8.07;100.00;97394.34;5044598;28;20067;-41
2023/05/02 03:01:23;;;;;;;7.53;5.38;;;8.60;99.90;;;8.07;100.00;97410.09;5043220;28;20051;-39
2023/05/02 03:03:50;;;;;;;;;;;8.60;99.90;;;8.07;100.00;97409.25;5048173;28;20047;-39
2023/05/02 03:06:17;;;;;;;5.07;4.28;;;8.60;99.90;;;8.07;100.00;97409.25;5046134;28;19923;-39
2023/05/02 03:08:43;;;;;;;4.93;4.30;;;8.60;99.90;;;8.02;100.00;97410.25;5045295;28;20119;-41
2023/05/02 03:11:09;;;;;;;5.43;4.22;;;8.60;99.90;;;8.07;100.00;97425.03;5042587;28;20133;-40
2023/05/02 03:13:36;;;;;;;5.05;4.05;;;8.60;99.90;;;8.06;100.00;97418.91;5046193;28;20115;-40
2023/05/02 03:16:39;;;;;;;8.50;4.72;;;8.60;99.90;;;8.06;100.00;97420.66;5042095;28;20468;-39
2023/05/02 03:19:07;;;;;;;4.82;4.30;;;8.60;99.90;;;8.14;100.00;97431.84;5043361;28;20040;-41
2023/05/02 03:21:34;;;;;;;4.88;4.32;;;8.70;99.90;;;8.08;100.00;97416.25;5041145;28;20037;-38
2023/05/02 03:24:01;;;;;;;6.90;4.70;;;8.70;99.90;;;8.28;100.00;97428.84;5042509;28;20111;-39
2023/05/02 03:26:27;;;;;;;5.13;4.47;;;8.80;99.90;;;8.30;100.00;97425.25;5044522;28;20122;-41
2023/05/02 03:28:54;;;;;;;5.88;4.95;;;8.90;99.90;;;8.39;100.00;97432.03;5044715;28;20120;-40
2023/05/02 03:31:20;;;;;;;6.03;4.85;;;8.90;99.90;;;8.44;100.00;97427.53;5046668;28;20115;-39
2023/05/02 03:33:46;;;;;;;6.00;4.63;;;8.90;99.90;;;8.39;100.00;97421.50;5043988;28;20069;-39
2023/05/02 03:36:13;;;;;;;5.65;4.75;;;9.00;99.90;;;8.47;100.00;97440.59;5041248;28;20392;-39
2023/05/02 03:38:38;;;;;;;5.18;4.55;;;9.00;99.90;;;8.46;100.00;97444.13;5044187;28;20028;-40
2023/05/02 03:41:04;;;;;;;5.72;4.20;;;9.00;99.90;;;8.44;100.00;97447.72;5042086;28;20044;-39
2023/05/02 03:43:30;;;;;;;6.60;5.20;;;9.00;99.90;;;8.45;100.00;97450.28;5043189;28;20480;-39
2023/05/02 03:45:56;;;;;;;4.93;4.43;;;9.00;99.90;;;8.47;100.00;97456.38;5042190;28;20048;-40
2023/05/02 03:48:22;;;;;;;5.47;4.57;;;9.00;99.90;;;8.52;100.00;97458.84;5042133;28;20093;-40
2023/05/02 03:50:49;;;;;;;9.20;4.80;;;9.00;99.90;;;8.53;100.00;97457.97;5042107;28;20443;-40
2023/05/02 03:53:15;;;;;;;6.63;5.07;;;9.10;99.90;;;8.58;100.00;97461.34;5040453;28;20036;-40
2023/05/02 03:55:44;;;;;;;6.00;4.07;;;9.10;99.90;;;8.47;100.00;97435.34;5036203;28;20062;-40
2023/05/02 03:58:10;;;;;;;6.05;4.72;;;9.10;99.90;;;8.69;100.00;97479.44;5039378;28;20603;-41
2023/05/02 04:00:37;;;;;;;7.03;4.80;;;9.20;99.90;;;8.68;100.00;97472.44;5036648;28;20119;-39
2023/05/02 04:03:02;;;;;;;6.57;4.50;;;9.20;99.90;;;8.67;100.00;97471.59;5043001;28;20041;-38
2023/05/02 04:05:28;;;;;;;5.32;4.57;;;9.20;99.90;;;8.75;100.00;97471.34;5037752;28;20017;-40
2023/05/02 04:07:56;;;;;;;5.97;4.07;;;9.30;99.90;;;8.78;100.00;97482.66;5053505;28;20044;-39
2023/05/02 04:10:21;;;;;;;5.38;4.63;;;9.30;99.90;;;8.81;100.00;97484.34;5044734;28;20028;-39
2023/05/02 04:12:48;;;;;;;7.13;4.70;;;9.30;99.90;;;8.83;100.00;97487.78;5042681;28;20053;-39
2023/05/02 04:15:13;;;;;;;6.72;5.22;;;9.40;99.90;;;8.85;100.00;97487.75;5042417;28;20212;-40
2023/05/02 04:17:39;;;;;;;6.68;4.60;;;9.30;99.90;;;8.85;100.00;97482.50;5041633;28;20036;-39
2023/05/02 04:20:06;;;;;;;6.70;5.20;;;9.40;99.90;;;8.89;100.00;97484.13;5040692;28;20219;-40
2023/05/02 04:22:32;;;;;;;7.80;5.90;;;9.40;99.90;;;8.88;100.00;97488.53;5044750;28;20024;-40
2023/05/02 04:24:58;;;;;;;5.93;5.15;;;9.40;99.90;;;8.95;100.00;97491.81;5046020;28;20028;-41
2023/05/02 04:27:24;;;;;;;8.10;5.47;;;9.50;99.90;;;8.88;100.00;97479.75;5042893;28;20050;-41
2023/05/02 04:29:50;;;;;;;7.00;5.50;;;9.50;99.90;;;8.97;100.00;97490.88;5049161;28;20025;-39
2023/05/02 04:32:16;;;;;;;8.00;6.18;;;9.50;99.90;;;9.00;100.00;97500.44;5045569;28;20024;-39
2023/05/02 04:34:42;;;;;;;6.93;4.97;;;9.50;99.90;;;9.01;100.00;97496.94;5046263;28;20510;-39
2023/05/02 04:37:08;;;;;;;6.80;5.75;;;9.50;99.90;;;8.96;100.00;97486.53;5046582;28;20048;-40
2023/05/02 04:39:34;;;;;;;6.35;5.38;;;9.50;99.90;;;9.04;100.00;97493.31;5039966;28;20124;-42
2023/05/02 04:42:00;;;;;;;6.07;5.47;;;9.50;99.90;;;9.12;100.00;97501.88;5038714;28;20044;-39
2023/05/02 04:44:26;;;;;;;6.93;5.45;;;9.60;99.90;;;9.04;100.00;97488.91;5037998;28;20024;-39
2023/05/02 04:46:52;;;;;;;6.97;5.75;;;9.60;99.90;;;9.16;100.00;97509.63;5043252;28;20033;-39
2023/05/02 04:49:17;;;;;;;7.20;4.85;;;9.70;99.90;;;9.22;100.00;97505.06;5040400;28;20043;-38
2023/05/02 04:51:44;;;;;;;6.68;5.20;;;9.70;99.90;;;9.27;100.00;97501.41;5039489;28;20455;-38
2023/05/02 04:54:11;;;;;;;5.30;4.80;;;9.70;99.90;;;9.31;100.00;97510.06;5027741;28;20463;-38
2023/05/02 04:56:37;;;;;;;5.10;4.25;;;9.80;99.90;;;9.23;100.00;97497.13;5033850;28;20532;-38
2023/05/02 04:59:02;;;;;;;6.38;4.65;;;9.80;99.90;;;9.34;100.00;97510.81;5038612;28;20407;-38
2023/05/02 05:01:28;;;;;;;6.25;4.88;;;9.80;99.90;;;9.24;100.00;97503.25;5044521;28;20020;-38
2023/05/02 05:03:54;;;;;;;6.78;4.80;;;9.80;99.90;;;9.31;100.00;97505.69;5044424;28;20036;-37
2023/05/02 05:06:21;;;;;;;6.72;5.30;;;9.80;99.90;;;9.42;100.00;97520.25;5045303;28;20048;-38
2023/05/02 05:08:47;;;;;;;6.10;5.10;;;9.90;99.90;;;9.50;100.00;97518.28;5044961;28;20166;-38
2023/05/02 05:11:13;;;;;;;6.72;5.13;;;10.00;99.90;;;9.57;100.00;97513.69;5047569;28;20647;-38
2023/05/02 05:13:39;;;;;;;6.63;4.63;;;10.10;99.90;;;9.79;100.00;97535.78;5045732;28;20086;-38
2023/05/02 05:16:05;;;;;;;7.22;6.00;;;10.30;99.90;;;9.96;100.00;97537.91;5045079;28;20028;-40
2023/05/02 05:18:31;;;;;;;7.03;5.57;;;10.40;99.90;;;10.07;100.00;97543.69;5047676;28;20052;-38
2023/05/02 05:20:57;;;;;;;7.70;4.82;;;10.60;99.90;;;10.21;100.00;97548.50;5044936;28;20119;-38
2023/05/02 05:23:22;;;;;;;5.72;3.70;;;10.70;99.90;;;10.31;100.00;97549.06;5048643;28;20028;-39
2023/05/02 05:25:48;;;;;;;6.82;5.13;;;10.70;99.90;;;10.34;100.00;97556.91;5048072;28;20078;-38
2023/05/02 05:28:14;;;;;;;6.50;4.63;;;10.80;99.90;;;10.35;100.00;97542.78;5046880;28;20457;-40
2023/05/02 05:30:39;;;;;;;6.50;4.45;;;10.90;99.90;;;10.48;100.00;97556.41;5049080;28;20028;-38
2023/05/02 05:33:05;;;;;;;4.07;3.65;;;11.00;99.90;;;10.54;100.00;97560.63;5067233;22;20055;-38
2023/05/02 05:35:31;;;;;;;5.85;4.85;;;11.00;99.90;;;10.57;100.00;97560.50;5055778;28;20037;-37
2023/05/02 05:37:57;;;;;;;5.20;4.22;;;11.00;99.90;;;10.59;100.00;97579.81;5052245;28;20040;-38
2023/05/02 05:40:23;;;;;;;5.80;4.45;;;11.10;99.90;;;10.64;100.00;97573.44;5048428;28;20120;-38
2023/05/02 05:42:48;;;;;;;7.85;5.32;;;11.20;99.90;;;10.73;100.00;97579.31;5049918;28;20024;-38
2023/05/02 05:45:16;;;;;;;5.68;4.70;;;11.20;99.90;;;10.77;100.00;97584.44;5047869;28;20028;-37
2023/05/02 05:47:42;;;;;;;5.45;4.40;;;11.20;99.90;;;10.81;100.00;97586.03;5051164;28;20396;-37
2023/05/02 05:50:08;;;;;;;7.50;4.95;;;11.30;99.90;;;10.83;100.00;97591.28;5049433;28;20041;-37
2023/05/02 05:52:34;;;;;;;8.43;5.82;;;11.30;99.90;;;10.78;100.00;97594.06;5051199;28;20024;-37
2023/05/02 05:54:59;;;;;;;6.07;5.20;;;11.30;99.90;;;10.77;100.00;97595.00;5049848;28;20037;-37
2023/05/02 05:57:25;;;;;;;9.15;6.05;;;11.30;99.90;;;10.67;100.00;97593.56;5047793;28;20529;-37
2023/05/02 05:59:51;;;;;;;10.63;5.82;;;11.20;99.90;;;10.65;100.00;97590.13;5050495;28;20051;-36
2023/05/02 06:02:18;;;;;;;8.95;6.15;;;11.20;99.90;;;10.75;100.00;97599.47;5055574;28;20036;-36
2023/05/02 06:04:45;;;;;;;11.15;7.90;;;11.20;99.90;;;10.74;100.00;97600.38;5052369;28;20063;-37
2023/05/02 06:07:11;;;;;;;7.05;6.35;;;11.30;99.90;;;10.80;100.00;97601.91;5051782;28;20520;-36
2023/05/02 06:09:36;;;;;;;7.15;5.40;;;11.30;99.90;;;10.92;100.00;97605.91;5051951;28;20268;-37
2023/05/02 06:12:02;;;;;;;11.88;6.63;;;11.40;99.90;;;11.02;100.00;97613.47;5052013;28;20066;-37
2023/05/02 06:14:28;;;;;;;8.70;6.55;;;11.50;99.90;;;11.08;100.00;97615.88;5053620;28;20550;-37
2023/05/02 06:16:53;;;;;;;9.07;7.38;;;11.60;99.90;;;11.11;100.00;97620.19;5054307;28;20039;-37
2023/05/02 06:19:19;;;;;;;8.15;6.70;;;11.60;99.90;;;11.16;100.00;97618.25;5052762;28;20082;-37
2023/05/02 06:21:45;;;;;;;9.57;7.18;;;11.60;99.90;;;11.19;100.00;97626.03;5051631;28;20036;-37
2023/05/02 06:24:10;;;;;;;9.27;7.00;;;11.70;99.90;;;11.27;100.00;97629.28;5055250;28;20507;-37
2023/05/02 06:26:36;;;;;;;12.35;8.20;;;11.70;99.90;;;11.37;100.00;97624.53;5052800;28;20085;-37
2023/05/02 06:29:02;;;;;;;11.13;7.13;;;11.80;99.90;;;11.54;100.00;97634.47;5055066;28;20381;-37
2023/05/02 06:31:28;;;;;;;7.80;6.82;;;12.00;99.90;;;11.65;100.00;97634.94;5051991;28;20040;-37
2023/05/02 06:33:54;;;;;;;9.18;6.97;;;12.10;99.90;;;11.82;100.00;97638.72;5052865;28;20113;-38
2023/05/02 06:36:20;;;;;;;10.82;8.55;;;12.20;99.90;;;11.97;100.00;97640.81;5051563;28;20404;-37
2023/05/02 06:38:46;;;;;;;11.00;8.13;;;12.40;99.90;;;12.06;100.00;97642.25;5052112;28;20029;-37
2023/05/02 06:41:13;;;;;;;9.57;7.80;;;12.50;99.90;;;12.15;100.00;97635.69;5052670;28;20095;-37
2023/05/02 06:43:39;;;;;;;11.90;9.63;;;12.70;99.90;;;12.09;100.00;97641.25;5050385;28;20392;-37
2023/05/02 06:46:05;;;;;;;13.02;10.90;;;12.70;99.90;;;12.13;100.00;97649.00;5052760;28;20035;-37
2023/05/02 06:48:31;;;;;;;16.08;9.57;;;12.70;99.90;;;12.20;100.00;97650.50;5050561;28;20127;-37
2023/05/02 06:50:56;;;;;;;12.23;9.35;;;12.70;99.90;;;12.25;100.00;97660.88;5050943;28;20040;-37
2023/05/02 06:53:22;;;;;;;14.57;10.88;;;12.80;99.90;;;12.20;100.00;97662.81;5052042;28;20388;-37
2023/05/02 06:55:48;;;;;;;14.15;10.90;;;12.80;99.90;;;12.20;100.00;97662.81;5047936;28;20055;-37
2023/05/02 06:58:14;;;;;;;12.32;9.85;;;12.70;99.90;;;12.14;100.00;97663.94;5053081;28;20874;-37
2023/05/02 07:00:39;;;;;;;13.07;10.10;;;12.70;99.90;;;12.15;100.00;97663.03;5049290;28;20290;-37
2023/05/02 07:03:05;;;;;;;11.63;9.70;;;12.70;99.90;;;12.12;100.00;97662.28;5050883;28;20028;-39
2023/05/02 07:05:31;;;;;;;13.85;10.23;;;12.60;99.90;;;12.09;100.00;97675.63;5049332;28;20067;-37
2023/05/02 07:07:57;;;;;;;12.48;9.75;;;12.60;99.90;;;12.14;100.00;97671.00;5052554;28;20032;-38
2023/05/02 07:10:23;;;;;;;16.33;11.45;;;12.60;99.90;;;12.10;100.00;97680.84;5052554;28;20044;-37
2023/05/02 07:12:49;;;;;;;14.60;11.38;;;12.60;99.90;;;12.00;100.00;97679.47;5050836;28;20020;-37
2023/05/02 07:15:15;;;;;;;14.57;11.45;;;12.60;99.90;;;12.07;100.00;97685.38;5051963;28;20515;-37
2023/05/02 07:17:41;;;;;;;15.75;11.02;;;12.60;99.90;;;12.07;100.00;97688.88;5051017;28;20032;-37
2023/05/02 07:20:09;;;;;;;16.60;11.93;;;12.60;99.90;;;12.11;100.00;97694.91;5049205;28;20033;-37
2023/05/02 07:22:35;;;;;;;15.23;10.65;;;12.60;99.90;;;12.19;100.00;97698.13;5052711;28;20021;-38
2023/05/02 07:25:02;;;;;;;14.63;11.25;;;12.70;99.90;;;12.20;100.00;97694.56;5051473;28;20199;-37
2023/05/02 07:27:28;;;;;;;17.42;10.95;;;12.70;99.90;;;12.27;100.00;97703.97;5049744;28;20055;-37
2023/05/02 07:29:53;;;;;;;18.33;13.52;;;12.70;99.90;;;12.26;100.00;97696.97;5052766;28;20025;-37
2023/05/02 07:32:24;;;;;;;18.02;13.95;;;12.80;99.90;;;12.22;100.00;97690.06;5053134;28;20032;-37
2023/05/02 07:34:53;;;;;;;18.63;14.15;;;12.80;99.90;;;12.19;100.00;97699.00;5051445;28;20043;-37
2023/05/02 07:37:19;;;;;;;20.38;14.00;;;12.80;99.90;;;12.19;100.00;97690.22;5052597;28;20032;-37
2023/05/02 07:39:45;;;;;;;17.83;15.45;;;12.70;99.90;;;12.30;100.00;97700.38;5050842;28;20021;-37
2023/05/02 07:42:11;;;;;;;18.15;13.93;;;12.90;99.90;;;12.37;100.00;97680.69;5051531;28;20037;-37
2023/05/02 07:44:37;;;;;;;19.23;14.27;;;13.00;99.90;;;12.46;100.00;97674.19;5054590;28;20031;-37
2023/05/02 07:47:03;;;;;;;16.30;12.93;;;13.10;99.90;;;12.74;100.00;97701.25;5043500;28;20028;-37
2023/05/02 07:49:29;;;;;;;18.13;14.18;;;13.20;99.90;;;12.90;100.00;97695.28;5062882;28;20057;-37
2023/05/02 07:51:55;;;;;;;23.83;16.55;;;13.40;99.90;;;12.95;100.00;97706.56;5052193;28;20063;-37
2023/05/02 07:54:21;;;;;;;18.63;15.52;;;13.50;99.90;;;13.02;100.00;97708.03;5046330;28;20048;-37
2023/05/02 07:56:50;;;;;;;19.20;15.77;;;13.60;99.90;;;13.17;100.00;97711.81;5050182;28;20377;-37
2023/05/02 07:59:16;;;;;;;23.27;16.55;;;13.70;99.90;;;13.14;100.00;97693.41;5051141;28;20025;-37
2023/05/02 08:01:41;;;;;;;18.60;14.93;;;13.80;99.90;;;13.26;100.00;97708.78;5051004;28;20534;-37
2023/05/02 08:04:09;;;;;;;18.48;13.63;;;13.90;99.90;;;13.40;100.00;97716.16;5050343;28;20033;-37
2023/05/02 08:06:35;;;;;;;21.48;15.05;;;13.90;99.90;;;13.41;100.00;97723.19;5051239;28;20120;-37
2023/05/02 08:09:01;;;;;;;20.80;14.43;;;13.90;99.90;;;13.39;100.00;97725.06;5050479;28;20032;-37
2023/05/02 08:11:27;;;;;;;22.05;14.88;;;14.00;99.90;;;13.45;100.00;97735.38;5050389;28;20993;-37
2023/05/02 08:13:53;;;;;;;20.67;15.52;;;14.00;99.90;;;13.44;100.00;97730.13;5049346;28;20409;-37
2023/05/02 08:16:19;;;;;;;24.10;14.70;;;14.00;99.90;;;13.45;100.00;97735.38;5049638;28;20074;-37
2023/05/02 08:18:45;;;;;;;19.83;15.70;;;14.00;99.90;;;13.51;100.00;97732.47;5048494;28;20028;-37
2023/05/02 08:21:11;;;;;;;22.25;15.60;;;14.10;99.90;;;13.60;100.00;97740.94;5049478;28;20468;-37
2023/05/02 08:23:37;;;;;;;22.52;16.52;;;14.10;99.90;;;13.49;100.00;97749.34;5048113;28;20514;-37
2023/05/02 08:26:03;;;;;;;21.90;16.65;;;14.10;99.90;;;13.38;100.00;97741.84;5053185;28;20021;-37
2023/05/02 08:28:29;;;;;;;22.35;16.92;;;14.00;99.90;;;13.34;100.00;97746.44;5052504;28;20044;-37
2023/05/02 08:30:56;;;;;;;21.02;16.85;;;14.00;99.90;;;13.42;100.00;97740.78;5050878;28;20036;-37
2023/05/02 08:33:22;;;;;;;19.73;16.40;;;14.00;99.90;;;13.59;100.00;97755.13;5048935;28;20071;-37
2023/05/02 08:35:48;;;;;;;22.35;18.00;;;14.10;99.90;;;13.59;100.00;97747.19;5046338;28;20025;-37
2023/05/02 08:38:13;;;;;;;21.15;16.42;;;14.20;99.90;;;13.78;100.00;97748.06;5052058;28;20033;-37
2023/05/02 08:40:39;;;;;;;17.02;13.23;;;14.30;99.90;;;14.11;100.00;97752.78;5049436;28;20047;-37
2023/05/02 08:43:05;;;;;;;24.35;17.05;;;14.60;99.90;;;14.30;100.00;97750.13;5051520;28;20105;-37
2023/05/02 08:45:38;;;;;;;22.35;15.57;;;14.90;99.90;;;14.47;100.00;97749.38;5050013;28;20369;-37
2023/05/02 08:48:09;;;;;;;21.02;15.45;;;15.10;99.90;;;14.74;100.00;97751.69;5048963;28;20068;-37
2023/05/02 08:50:40;;;;;;;20.08;16.05;;;15.20;99.90;;;14.93;100.00;97759.59;5050913;28;20456;-37
2023/05/02 08:53:08;;;;;;;21.00;15.50;;;15.50;99.90;;;15.06;100.00;97758.94;5051806;28;20072;-37
2023/05/02 08:55:40;;;;;;;24.33;15.52;;;15.60;99.90;;;15.19;100.00;97764.50;5048565;28;20719;-37
2023/05/02 08:58:10;;;;;;;17.50;14.07;;;15.70;99.90;;;15.36;100.00;97754.81;5047552;28;20033;-37
2023/05/02 09:00:40;;;;;;;20.25;14.18;;;15.90;99.90;;;15.58;98.45;97757.25;5048415;28;20078;-38
2023/05/02 09:03:30;;;;;;;19.17;14.73;;;16.00;99.90;;;15.74;97.95;97766.19;5051539;28;20093;-37
2023/05/02 09:06:15;;;;;;;20.02;15.32;;;16.20;99.90;;;15.89;97.39;97764.50;5047841;28;20032;-37
2023/05/02 09:08:43;;;;;;;16.85;13.30;;;16.30;99.90;;;16.02;96.33;97749.63;5046338;28;20499;-37
2023/05/02 09:11:10;;;;;;;17.25;14.40;;;16.50;99.90;;;16.10;93.56;97767.00;5050803;28;20064;-38
2023/05/02 09:13:50;;;;;;;20.08;15.43;;;16.50;99.90;;;16.09;89.30;97763.44;5049365;28;20467;-37
2023/05/02 09:16:24;;;;;;;15.13;12.75;;;16.50;99.90;;;16.29;91.84;97774.81;5047685;28;20025;-38
2023/05/02 09:18:53;;;;;;;19.13;14.40;;;16.60;99.90;;;16.37;91.82;97770.81;5051295;28;20040;-37
2023/05/02 09:21:24;;;;;;;17.75;13.82;;;16.80;99.90;;;16.43;88.53;97774.94;5046373;28;20174;-37
2023/05/02 09:23:53;;;;;;;18.88;13.07;;;16.90;99.90;;;16.46;86.92;97777.44;5048895;28;20058;-37
2023/05/02 09:26:25;;;;;;;20.40;15.38;;;16.90;99.90;;;16.52;83.84;97771.75;5051086;28;20339;-37
2023/05/02 09:28:56;;;;;;;19.05;15.32;;;16.90;99.90;;;16.50;84.80;97776.31;5050663;28;20524;-37
2023/05/02 09:31:32;;;;;;;18.90;14.70;;;17.00;99.90;;;16.46;82.39;97769.44;5046127;28;20131;-37
2023/05/02 09:34:12;;;;;;;19.65;14.77;;;17.00;99.90;;;16.57;86.27;97777.69;5049932;28;20410;-37
2023/05/02 09:36:44;;;;;;;16.13;12.60;;;17.10;99.90;;;16.76;84.92;97772.22;5049476;28;20028;-37
2023/05/02 09:39:12;;;;;;;19.27;12.38;;;17.20;99.90;;;16.94;82.64;97781.00;5050194;28;20040;-37
2023/05/02 09:41:46;;;;;;;23.27;17.73;;;17.40;99.90;;;16.96;77.46;97780.94;5042453;28;20028;-37
2023/05/02 09:44:22;;;;;;;20.13;15.25;;;17.50;99.90;;;16.90;80.57;97776.78;5051840;28;20028;-37
2023/05/02 09:46:54;;;;;;;19.52;14.68;;;17.40;99.90;;;16.74;77.38;97778.56;5048610;28;20024;-37
2023/05/02 09:49:44;;;;;;;18.50;15.47;;;17.30;99.90;;;16.61;80.76;97779.25;5053958;28;20119;-37
2023/05/02 09:52:16;;;;;;;23.52;16.23;;;17.10;99.90;;;16.32;83.70;97772.84;5047774;28;20329;-37
2023/05/02 09:54:42;;;;;;;15.88;14.13;;;16.80;99.90;;;16.18;86.40;97775.41;5051592;28;20021;-37
2023/05/02 09:57:09;;;;;;;25.30;17.27;;;16.60;99.90;;;15.67;85.92;97783.38;5051924;28;20182;-37
2023/05/02 09:59:35;;;;;;;27.50;16.90;;;16.20;99.90;;;15.25;87.27;97771.28;5049887;28;20094;-37
2023/05/02 10:02:04;;;;;;;22.60;15.90;;;15.90;99.90;;;15.05;93.97;97785.56;5052458;28;20056;-37
2023/05/02 10:04:32;;;;;;;17.33;13.45;;;15.60;99.90;;;15.13;96.75;97785.19;5049363;28;20087;-37
2023/05/02 10:06:59;;;;;;;22.83;15.82;;;15.50;99.90;;;15.11;95.40;97784.41;5054578;28;20116;-37
2023/05/02 10:09:26;;;;;;;16.58;13.48;;;15.50;99.90;;;15.13;92.16;97774.56;5052134;28;20024;-37
2023/05/02 10:11:55;;;;;;;18.90;14.00;;;15.50;99.90;;;15.15;93.86;97788.66;5052271;28;20040;-37
2023/05/02 10:14:24;;;;;;;21.88;16.27;;;15.50;99.90;;;15.13;87.43;97790.50;5049432;28;20037;-37
2023/05/02 10:17:06;;;;;;;23.02;15.82;;;15.50;99.90;;;15.17;89.80;97786.78;5052362;28;20029;-37
2023/05/02 10:19:53;;;;;;;22.90;16.20;;;15.50;99.90;;;15.15;89.85;97786.00;5048308;28;20025;-37
2023/05/02 10:22:19;;;;;;;17.92;14.25;;;15.60;99.90;;;15.29;91.76;97788.81;5048474;28;20489;-38